Time;durP1;ratioP1;P1;durP2;ratioP2;P2;SDS_P1;SDS_P2;PMS_P1;PMS_P2;Temp;Humidity;BMP_temperature;BMP_pressure;BME280_temperature;BME280_humidity;BME280_pressure;Samples;Min_cycle;Max_cycle;Signal;HPM_P1;HPM_P2
2022/11/10 00:00:05;;;;;;;19.73;7.35;;;;;;;11.40;100.00;101051.84;4948501;29;20031;-74
2022/11/10 00:02:31;;;;;;;15.80;6.32;;;;;;;11.45;100.00;101067.63;4932217;29;20039;-74
2022/11/10 00:04:57;;;;;;;28.52;7.63;;;;;;;11.52;100.00;101055.97;4934012;29;20155;-74
2022/11/10 00:07:24;;;;;;;24.50;7.10;;;;;;;11.54;100.00;101053.97;4932510;29;20055;-74
2022/11/10 00:09:51;;;;;;;23.15;8.23;;;;;;;11.46;100.00;101043.06;4932137;29;20038;-72
2022/11/10 00:12:17;;;;;;;23.63;6.35;;;;;;;11.49;100.00;101059.03;4932821;29;20043;-72
2022/11/10 00:17:27;;;;;;;23.42;8.35;;;;;;;11.42;100.00;101057.97;4933592;29;20031;-72
2022/11/10 00:19:52;;;;;;;27.73;7.50;;;;;;;11.34;100.00;101055.19;4932437;29;20399;-72
2022/11/10 00:22:17;;;;;;;32.40;8.93;;;;;;;11.41;100.00;101084.22;4933191;29;20039;-73
2022/11/10 00:24:43;;;;;;;25.52;8.65;;;;;;;11.33;100.00;101086.00;4932269;29;20089;-72
2022/11/10 00:27:09;;;;;;;30.63;9.63;;;;;;;11.26;100.00;101084.94;4932295;29;20027;-72
2022/11/10 00:29:34;;;;;;;22.33;8.10;;;;;;;11.26;100.00;101090.38;4932735;29;20027;-72
2022/11/10 00:32:00;;;;;;;28.08;8.13;;;;;;;11.36;100.00;101080.28;4924326;29;20035;-72
2022/11/10 00:34:25;;;;;;;21.30;8.57;;;;;;;11.36;100.00;101091.13;4932185;29;20083;-72
2022/11/10 00:36:50;;;;;;;22.27;8.52;;;;;;;11.22;100.00;101099.84;4948998;29;20028;-72
2022/11/10 00:39:16;;;;;;;24.75;8.27;;;;;;;11.23;100.00;101085.28;4923567;29;20028;-72
2022/11/10 00:41:41;;;;;;;23.77;9.35;;;;;;;11.11;100.00;101109.91;4931095;29;20024;-74
2022/11/10 00:44:07;;;;;;;24.80;9.35;;;;;;;11.11;100.00;101115.31;4932284;29;20054;-72
2022/11/10 00:46:32;;;;;;;29.77;9.98;;;;;;;11.11;100.00;101109.91;4947158;29;20062;-72
2022/11/10 00:48:57;;;;;;;30.35;9.02;;;;;;;11.11;100.00;101093.63;4947963;29;20147;-72
2022/11/10 00:51:25;;;;;;;26.65;8.63;;;;;;;11.08;100.00;101107.50;4947778;29;20028;-72
2022/11/10 00:53:51;;;;;;;21.13;7.80;;;;;;;11.10;100.00;101113.63;4947249;29;20024;-73
2022/11/10 00:56:17;;;;;;;31.95;7.60;;;;;;;11.13;100.00;101113.28;4947625;29;20047;-72
2022/11/10 00:58:42;;;;;;;21.00;8.43;;;;;;;11.21;100.00;101114.38;4947306;29;20468;-72
2022/11/10 01:01:09;;;;;;;21.67;7.80;;;;;;;11.10;100.00;101108.19;4938883;29;20028;-72
2022/11/10 01:03:35;;;;;;;38.78;8.75;;;;;;;11.13;100.00;101118.72;4946569;28;20122;-72
2022/11/10 01:06:09;;;;;;;21.80;7.20;;;;;;;11.05;100.00;101117.81;4931673;29;20523;-72
2022/11/10 01:08:35;;;;;;;22.90;7.88;;;;;;;11.16;100.00;101111.31;4931482;29;20027;-73
2022/11/10 01:11:27;;;;;;;22.02;7.40;;;;;;;11.07;100.00;101135.59;4931441;29;20477;-72
2022/11/10 01:13:55;;;;;;;23.83;7.60;;;;;;;11.09;100.00;101125.47;4923744;29;20079;-73
2022/11/10 01:16:31;;;;;;;22.35;7.95;;;;;;;10.96;100.00;101122.31;4929779;29;20058;-73
2022/11/10 01:19:01;;;;;;;29.25;8.60;;;;;;;11.07;100.00;101130.16;4947465;29;20020;-72
2022/11/10 01:21:28;;;;;;;23.45;7.55;;;;;;;11.05;100.00;101148.47;4931273;29;20097;-73
2022/11/10 01:23:54;;;;;;;24.13;7.72;;;;;;;11.07;100.00;101145.59;4933223;29;20020;-72
2022/11/10 01:26:20;;;;;;;24.85;8.00;;;;;;;11.05;100.00;101153.88;4934819;29;20082;-73
2022/11/10 01:28:46;;;;;;;31.60;8.30;;;;;;;10.83;100.00;101154.34;4931982;29;20036;-73
2022/11/10 01:31:17;;;;;;;30.50;8.35;;;;;;;10.93;100.00;101155.09;4928142;29;20389;-72
2022/11/10 01:33:43;;;;;;;25.33;8.88;;;;;;;10.89;100.00;101159.16;4935056;29;20420;-72
2022/11/10 01:36:09;;;;;;;23.83;7.95;;;;;;;10.83;100.00;101160.59;4935752;29;20039;-73
2022/11/10 01:38:37;;;;;;;27.65;7.65;;;;;;;10.88;100.00;101168.25;4936419;29;20082;-73
2022/11/10 01:41:04;;;;;;;18.02;6.38;;;;;;;10.86;100.00;101189.22;4934783;29;20131;-72
2022/11/10 01:43:30;;;;;;;21.92;7.35;;;;;;;11.09;100.00;101163.41;4935632;29;20078;-73
2022/11/10 01:46:01;;;;;;;31.35;7.07;;;;;;;10.98;100.00;101168.19;4936017;29;20027;-73
2022/11/10 01:48:35;;;;;;;19.33;6.38;;;;;;;10.76;100.00;101180.34;4950683;28;20019;-73
2022/11/10 01:51:07;;;;;;;24.67;6.18;;;;;;;10.78;100.00;101170.19;4950553;28;20019;-73
2022/11/10 01:53:37;;;;;;;26.80;7.00;;;;;;;10.80;100.00;101176.28;4934119;29;20040;-72
2022/11/10 01:56:03;;;;;;;21.20;6.25;;;;;;;10.79;100.00;101185.44;4935891;29;20035;-72
2022/11/10 01:58:39;;;;;;;24.23;6.72;;;;;;;10.86;100.00;101191.94;4950311;29;20035;-72
2022/11/10 02:01:08;;;;;;;18.77;6.20;;;;;;;10.74;100.00;101193.16;4934049;29;20045;-73
2022/11/10 02:03:58;;;;;;;26.30;6.95;;;;;;;10.64;100.00;101195.94;4928490;29;20059;-71
2022/11/10 02:06:28;;;;;;;18.27;7.13;;;;;;;10.57;100.00;101195.69;4950616;29;20035;-72
2022/11/10 02:08:55;;;;;;;22.33;7.68;;;;;;;10.62;100.00;101205.19;4934420;29;20091;-72
2022/11/10 02:11:22;;;;;;;20.30;6.43;;;;;;;10.63;100.00;101196.06;4934212;29;20027;-71
2022/11/10 02:13:47;;;;;;;19.23;6.20;;;;;;;10.65;100.00;101199.47;4933878;29;20019;-72
2022/11/10 02:16:13;;;;;;;26.25;7.70;;;;;;;10.57;100.00;101201.09;4934593;29;20103;-72
2022/11/10 02:18:39;;;;;;;22.10;7.70;;;;;;;10.75;100.00;101205.69;4935618;29;20032;-72
2022/11/10 02:21:06;;;;;;;23.33;6.90;;;;;;;10.47;100.00;101202.97;4934114;29;20028;-72
2022/11/10 02:23:34;;;;;;;26.05;6.43;;;;;;;10.49;100.00;101222.63;4934965;29;20026;-72
2022/11/10 02:26:01;;;;;;;27.13;7.13;;;;;;;10.68;100.00;101215.41;4933972;29;20087;-72
2022/11/10 02:28:26;;;;;;;22.27;7.63;;;;;;;10.47;100.00;101227.34;4931064;29;20035;-72
2022/11/10 02:30:53;;;;;;;22.77;7.15;;;;;;;10.57;100.00;101228.16;4923801;29;20027;-72
2022/11/10 02:33:19;;;;;;;15.57;7.53;;;;;;;10.50;100.00;101221.66;4949440;28;20054;-72
2022/11/10 02:35:45;;;;;;;26.92;7.70;;;;;;;10.57;100.00;101225.47;4932939;29;20477;-72
2022/11/10 02:38:11;;;;;;;25.50;7.13;;;;;;;10.49;100.00;101229.91;4933830;29;20032;-72
2022/11/10 02:40:36;;;;;;;23.95;7.45;;;;;;;10.45;100.00;101236.63;4949644;28;20488;-74
2022/11/10 02:43:05;;;;;;;25.02;7.78;;;;;;;10.40;100.00;101234.34;4941516;29;20023;-74
2022/11/10 02:45:30;;;;;;;32.38;7.78;;;;;;;10.41;100.00;101236.06;4930133;29;20054;-72
2022/11/10 02:47:56;;;;;;;25.73;7.28;;;;;;;10.33;100.00;101254.91;4930364;29;20042;-71
2022/11/10 02:50:22;;;;;;;26.90;9.00;;;;;;;10.30;100.00;101238.94;4930606;29;20122;-72
2022/11/10 02:52:47;;;;;;;27.75;8.85;;;;;;;10.24;100.00;101239.56;4930780;29;20072;-72
2022/11/10 02:55:12;;;;;;;24.63;8.02;;;;;;;10.25;100.00;101241.25;4929832;29;20120;-72
2022/11/10 02:57:38;;;;;;;24.67;7.82;;;;;;;10.27;100.00;101244.66;4930159;29;20086;-72
2022/11/10 03:00:06;;;;;;;31.73;9.05;;;;;;;10.24;100.00;101250.38;4935476;29;20035;-72
2022/11/10 03:02:31;;;;;;;27.75;9.13;;;;;;;10.32;100.00;101242.38;4934350;29;20023;-72
2022/11/10 03:04:56;;;;;;;24.08;8.88;;;;;;;10.30;100.00;101238.94;4953108;23;20041;-71
2022/11/10 03:07:22;;;;;;;32.40;11.00;;;;;;;10.27;100.00;101248.22;4971018;28;20027;-71
2022/11/10 03:09:47;;;;;;;28.05;9.65;;;;;;;10.19;100.00;101248.06;4956098;28;20035;-71
2022/11/10 03:12:12;;;;;;;32.92;9.60;;;;;;;10.30;100.00;101260.59;4952949;29;20035;-71
2022/11/10 03:14:38;;;;;;;27.10;9.13;;;;;;;10.23;100.00;101259.47;4954777;28;20023;-71
2022/11/10 03:17:03;;;;;;;32.00;10.15;;;;;;;10.30;100.00;101252.47;4953291;28;20094;-72
2022/11/10 03:19:28;;;;;;;26.17;10.40;;;;;;;10.19;100.00;101263.47;4968376;28;20030;-72
2022/11/10 03:21:54;;;;;;;26.95;11.88;;;;;;;10.25;100.00;101262.91;4968431;28;20035;-72
2022/11/10 03:24:19;;;;;;;30.98;10.27;;;;;;;10.29;100.00;101269.72;4967663;28;20027;-72
2022/11/10 03:26:45;;;;;;;23.35;10.27;;;;;;;10.27;100.00;101283.41;4952452;29;20035;-72
2022/11/10 03:29:10;;;;;;;34.13;12.05;;;;;;;10.15;100.00;101289.94;4967894;28;20077;-72
2022/11/10 03:31:35;;;;;;;42.58;12.02;;;;;;;10.09;100.00;101301.34;4952280;29;20023;-72
2022/11/10 03:34:01;;;;;;;33.67;11.98;;;;;;;10.22;100.00;101306.44;4952684;28;20042;-72
2022/11/10 03:36:26;;;;;;;39.70;14.13;;;;;;;10.23;100.00;101294.66;4952790;28;20130;-72
2022/11/10 03:38:52;;;;;;;42.28;14.80;;;;;;;10.00;100.00;101297.66;4967865;28;20031;-72
2022/11/10 03:41:17;;;;;;;33.13;12.77;;;;;;;9.98;100.00;101296.97;4967457;28;20041;-73
2022/11/10 03:43:42;;;;;;;42.42;13.10;;;;;;;9.98;100.00;101296.97;4952746;28;20027;-72
2022/11/10 03:46:08;;;;;;;30.58;12.55;;;;;;;10.07;100.00;101298.78;4952155;28;20031;-72
2022/11/10 03:48:33;;;;;;;27.90;12.30;;;;;;;10.11;100.00;101298.50;4952776;29;20042;-72
2022/11/10 03:50:59;;;;;;;38.35;13.75;;;;;;;10.03;100.00;101297.34;4967672;28;20035;-72
2022/11/10 03:53:24;;;;;;;40.97;15.02;;;;;;;9.97;100.00;101287.13;4967482;28;20039;-72
2022/11/10 03:55:49;;;;;;;30.23;13.10;;;;;;;9.95;100.00;101289.13;4952242;28;20031;-72
2022/11/10 03:58:15;;;;;;;40.35;13.63;;;;;;;10.01;100.00;101299.38;4952975;29;20035;-72
2022/11/10 04:00:40;;;;;;;37.38;14.13;;;;;;;9.95;100.00;101299.94;4952399;29;20027;-72
2022/11/10 04:03:06;;;;;;;38.15;13.77;;;;;;;10.09;100.00;101308.59;4959118;28;20034;-72
2022/11/10 04:11:01;;;;;;;39.85;15.75;;;;;;;10.20;100.00;101319.28;4952283;29;20082;-73
2022/11/10 04:16:10;;;;;;;43.28;18.08;;;;;;;10.15;100.00;101332.38;4952024;29;20031;-72
2022/11/10 04:18:36;;;;;;;48.17;16.80;;;;;;;10.18;100.00;101334.81;4951298;29;20049;-72
2022/11/10 04:21:02;;;;;;;49.30;18.17;;;;;;;10.12;100.00;101344.38;4966618;28;20098;-72
2022/11/10 04:23:33;;;;;;;40.55;16.90;;;;;;;10.18;100.00;101351.06;4951834;29;20019;-72
2022/11/10 04:28:48;;;;;;;37.17;18.08;;;;;;;10.28;100.00;101365.44;4951781;29;20031;-72
2022/11/10 04:31:16;;;;;;;39.75;19.00;;;;;;;10.29;100.00;101356.31;4950586;29;20019;-72
2022/11/10 04:33:42;;;;;;;44.33;19.73;;;;;;;10.35;100.00;101365.72;4961996;28;20027;-72
2022/11/10 04:36:10;;;;;;;41.42;20.42;;;;;;;10.37;100.00;101369.13;4950611;29;20106;-72
2022/11/10 04:38:35;;;;;;;41.72;20.10;;;;;;;10.30;100.00;101363.44;4951784;29;20038;-72
2022/11/10 04:41:01;;;;;;;44.58;20.60;;;;;;;10.27;100.00;101363.75;4979635;28;20027;-71
2022/11/10 04:43:27;;;;;;;50.10;22.13;;;;;;;10.36;100.00;101384.50;4969717;28;20042;-71
2022/11/10 04:45:53;;;;;;;44.22;23.25;;;;;;;10.26;100.00;101368.31;4985770;28;20086;-71
2022/11/10 04:48:18;;;;;;;53.90;25.13;;;;;;;10.17;100.00;101384.50;4969355;28;20033;-71
2022/11/10 04:50:44;;;;;;;54.65;24.63;;;;;;;10.40;100.00;101372.41;4970826;28;20023;-71
2022/11/10 04:53:09;;;;;;;59.10;27.25;;;;;;;10.42;100.00;101388.50;4985547;28;20022;-71
2022/11/10 04:55:38;;;;;;;58.97;24.58;;;;;;;10.48;100.00;101372.53;4986238;28;20035;-71
2022/11/10 04:58:04;;;;;;;67.32;26.13;;;;;;;10.38;100.00;101377.13;4969110;28;20018;-72
2022/11/10 05:00:30;;;;;;;48.88;23.10;;;;;;;10.45;100.00;101399.06;4961360;28;20023;-72
2022/11/10 05:02:59;;;;;;;61.17;27.95;;;;;;;10.32;100.00;101394.78;4966304;28;20030;-72
2022/11/10 05:05:24;;;;;;;59.05;27.25;;;;;;;10.35;100.00;101409.88;4950120;28;20031;-71
2022/11/10 05:07:50;;;;;;;56.30;27.05;;;;;;;10.41;100.00;101398.47;4951539;29;20039;-71
2022/11/10 05:10:15;;;;;;;65.05;27.50;;;;;;;10.37;100.00;101402.50;4966223;28;20027;-72
2022/11/10 05:12:40;;;;;;;54.22;28.23;;;;;;;10.47;100.00;101414.16;4949933;29;20031;-72
2022/11/10 05:15:06;;;;;;;61.28;26.50;;;;;;;10.43;100.00;101412.75;4950114;28;20365;-72
2022/11/10 05:17:32;;;;;;;61.33;28.48;;;;;;;10.50;100.00;101405.75;4951515;28;20031;-72
2022/11/10 05:19:57;;;;;;;58.28;25.95;;;;;;;10.36;100.00;101411.59;4951367;29;20027;-71
2022/11/10 05:22:22;;;;;;;51.78;25.33;;;;;;;10.33;100.00;101425.41;4966384;28;20114;-71
2022/11/10 05:24:47;;;;;;;61.47;25.58;;;;;;;10.35;100.00;101418.00;4949994;28;20055;-72
2022/11/10 05:27:13;;;;;;;64.82;25.67;;;;;;;10.35;100.00;101420.72;4950686;29;20118;-72
2022/11/10 05:29:38;;;;;;;50.00;23.80;;;;;;;10.49;100.00;101425.69;4965968;28;20023;-72
2022/11/10 05:32:04;;;;;;;49.75;25.52;;;;;;;10.36;100.00;101427.81;4951290;28;20090;-72
2022/11/10 05:34:29;;;;;;;64.95;25.30;;;;;;;10.33;100.00;101417.31;4949922;28;20035;-71
2022/11/10 05:36:54;;;;;;;56.10;25.58;;;;;;;10.19;100.00;101437.50;4951465;29;20039;-71
2022/11/10 05:39:20;;;;;;;54.65;23.40;;;;;;;10.09;100.00;101441.19;4950263;29;20492;-71
2022/11/10 05:41:45;;;;;;;52.83;24.80;;;;;;;10.14;100.00;101433.50;4951820;29;20082;-72
2022/11/10 05:44:10;;;;;;;60.22;27.98;;;;;;;10.12;100.00;101446.34;4951274;28;20054;-71
2022/11/10 05:46:39;;;;;;;50.08;23.92;;;;;;;10.21;100.00;101445.47;4966219;28;20065;-71
2022/11/10 05:49:04;;;;;;;48.85;25.52;;;;;;;10.22;100.00;101447.19;4966165;28;20041;-72
2022/11/10 05:51:29;;;;;;;58.20;25.58;;;;;;;10.22;100.00;101447.19;4966360;28;20035;-72
2022/11/10 05:53:55;;;;;;;52.90;25.88;;;;;;;10.23;100.00;101459.75;4966111;28;20110;-72
2022/11/10 05:56:20;;;;;;;55.58;24.65;;;;;;;10.12;100.00;101462.56;4950759;28;20050;-72
2022/11/10 05:58:45;;;;;;;47.78;23.33;;;;;;;10.23;100.00;101449.75;4965988;28;20023;-72
2022/11/10 06:01:11;;;;;;;58.40;25.63;;;;;;;10.20;100.00;101460.00;4949383;29;20634;-72
2022/11/10 06:03:37;;;;;;;54.83;24.67;;;;;;;10.15;100.00;101462.28;4949753;28;20029;-73
2022/11/10 06:06:03;;;;;;;56.67;23.75;;;;;;;10.21;100.00;101461.72;4965489;28;20039;-73
2022/11/10 06:08:28;;;;;;;72.40;26.15;;;;;;;10.09;100.00;101465.53;4951726;28;20031;-73
2022/11/10 06:10:53;;;;;;;60.50;23.98;;;;;;;10.04;100.00;101474.94;4951667;28;20035;-72
2022/11/10 06:13:19;;;;;;;54.95;23.08;;;;;;;10.17;100.00;101481.91;4952883;29;20027;-73
2022/11/10 06:15:44;;;;;;;45.63;22.10;;;;;;;10.19;100.00;101493.47;4954419;28;20115;-72
2022/11/10 06:18:10;;;;;;;64.18;22.27;;;;;;;10.16;100.00;101497.31;4953540;28;20455;-72
2022/11/10 06:20:35;;;;;;;56.17;21.10;;;;;;;10.14;100.00;101509.28;4953242;29;20050;-72
2022/11/10 06:23:06;;;;;;;65.55;22.65;;;;;;;10.10;100.00;101499.72;4953823;28;20082;-72
2022/11/10 06:25:34;;;;;;;74.18;21.45;;;;;;;10.11;100.00;101509.56;4953082;28;20057;-72
2022/11/10 06:28:00;;;;;;;39.40;17.90;;;;;;;10.25;100.00;101517.31;4953025;29;20039;-72
2022/11/10 06:30:27;;;;;;;37.13;19.60;;;;;;;10.06;100.00;101535.19;4953877;28;20114;-72
2022/11/10 06:32:53;;;;;;;57.38;19.92;;;;;;;10.09;100.00;101527.75;4953556;28;20030;-72
2022/11/10 06:35:19;;;;;;;43.40;19.63;;;;;;;10.12;100.00;101538.34;4952787;28;20039;-72
2022/11/10 06:37:44;;;;;;;67.38;22.42;;;;;;;9.93;100.00;101539.97;4952866;29;20027;-72
2022/11/10 06:40:12;;;;;;;53.28;19.00;;;;;;;10.04;100.00;101548.00;4961230;28;20037;-72
2022/11/10 06:42:38;;;;;;;48.90;20.52;;;;;;;9.95;100.00;101551.50;4973397;28;20035;-72
2022/11/10 06:45:04;;;;;;;50.60;18.90;;;;;;;10.05;100.00;101560.53;4988045;28;20058;-72
2022/11/10 06:47:30;;;;;;;55.08;18.50;;;;;;;10.23;100.00;101558.03;4988280;28;20117;-73
2022/11/10 06:49:56;;;;;;;45.75;17.10;;;;;;;10.26;100.00;101562.31;4988134;28;20023;-73
2022/11/10 06:52:21;;;;;;;47.50;17.40;;;;;;;10.24;100.00;101565.16;4972481;28;20033;-72
2022/11/10 06:54:46;;;;;;;48.40;18.30;;;;;;;10.15;100.00;101570.50;4971469;28;20046;-72
2022/11/10 06:57:12;;;;;;;49.78;17.92;;;;;;;10.12;100.00;101554.56;4988065;28;20030;-72
2022/11/10 06:59:37;;;;;;;52.90;17.98;;;;;;;10.13;100.00;101594.16;4986057;28;20023;-72
2022/11/10 07:02:03;;;;;;;41.15;16.27;;;;;;;10.10;100.00;101591.72;4968036;28;20031;-72
2022/11/10 07:04:28;;;;;;;53.33;16.90;;;;;;;10.16;100.00;101585.75;4951952;28;20024;-72
2022/11/10 07:06:54;;;;;;;46.33;14.07;;;;;;;10.20;100.00;101584.50;4968511;28;20027;-72
2022/11/10 07:09:19;;;;;;;43.17;15.63;;;;;;;10.18;100.00;101586.50;4967836;28;20054;-72
2022/11/10 07:11:45;;;;;;;45.03;16.48;;;;;;;10.23;100.00;101606.72;4968079;28;20031;-72
2022/11/10 07:14:10;;;;;;;48.30;15.05;;;;;;;10.15;100.00;101608.41;4967895;28;20074;-72
2022/11/10 07:16:35;;;;;;;43.83;15.88;;;;;;;10.21;100.00;101602.44;4953304;28;20052;-72
2022/11/10 07:19:01;;;;;;;51.97;17.35;;;;;;;9.96;100.00;101614.59;4952283;29;20023;-72
2022/11/10 07:21:26;;;;;;;40.08;14.85;;;;;;;10.10;100.00;101616.06;4967330;28;20023;-72
2022/11/10 07:23:51;;;;;;;52.45;15.40;;;;;;;10.07;100.00;101618.06;4952927;28;20032;-72
2022/11/10 07:26:17;;;;;;;56.72;18.25;;;;;;;9.91;100.00;101612.31;4952439;28;20070;-71
2022/11/10 07:28:42;;;;;;;47.03;17.48;;;;;;;10.18;100.00;101627.06;4953429;28;20029;-74
2022/11/10 07:31:07;;;;;;;49.03;17.50;;;;;;;10.14;100.00;101640.00;4952655;29;20111;-73
2022/11/10 07:33:33;;;;;;;47.40;18.23;;;;;;;10.18;100.00;101643.31;4967388;28;20027;-73
2022/11/10 07:36:02;;;;;;;59.78;21.80;;;;;;;9.95;100.00;101656.16;4967221;28;20031;-73
2022/11/10 07:38:28;;;;;;;49.97;19.52;;;;;;;10.10;100.00;101637.72;4951414;29;20038;-73
2022/11/10 07:40:54;;;;;;;50.75;21.35;;;;;;;10.06;100.00;101659.63;4967757;28;20058;-73
2022/11/10 07:43:22;;;;;;;50.75;22.02;;;;;;;10.09;100.00;101644.13;4967093;28;20035;-73
2022/11/10 07:45:51;;;;;;;50.08;20.52;;;;;;;10.28;100.00;101641.50;4948702;29;20051;-72
2022/11/10 07:48:17;;;;;;;56.25;20.13;;;;;;;10.24;100.00;101672.56;4945349;28;20071;-72
2022/11/10 07:50:44;;;;;;;59.85;21.27;;;;;;;10.22;100.00;101659.13;4961774;28;20031;-73
2022/11/10 07:53:15;;;;;;;58.97;22.13;;;;;;;10.33;100.00;101664.47;4961815;28;20399;-73
2022/11/10 07:55:42;;;;;;;50.77;21.63;;;;;;;10.42;100.00;101664.63;4947636;28;20054;-73
2022/11/10 07:58:10;;;;;;;60.13;20.88;;;;;;;10.48;100.00;101664.09;4947423;29;20267;-73
2022/11/10 08:00:36;;;;;;;45.65;22.23;;;;;;;10.23;100.00;101660.00;4959364;28;20034;-73
2022/11/10 08:03:07;;;;;;;54.53;20.83;;;;;;;10.32;100.00;101670.88;4945253;28;20373;-73
2022/11/10 08:05:33;;;;;;;65.47;21.63;;;;;;;10.37;100.00;101662.38;4961333;28;20094;-73
2022/11/10 08:07:59;;;;;;;69.75;23.38;;;;;;;10.36;100.00;101671.44;4960545;28;20134;-73
2022/11/10 08:10:26;;;;;;;59.05;23.17;;;;;;;10.46;100.00;101677.78;4961266;28;20065;-72
2022/11/10 08:12:56;;;;;;;54.55;22.92;;;;;;;10.47;100.00;101684.91;4945966;29;20027;-73
2022/11/10 08:15:22;;;;;;;59.42;24.48;;;;;;;10.52;100.00;101693.47;4961827;28;20486;-73
2022/11/10 08:17:48;;;;;;;55.35;21.60;;;;;;;10.49;100.00;101677.47;4944963;29;20108;-73
2022/11/10 08:20:13;;;;;;;64.93;23.33;;;;;;;10.53;100.00;101684.34;4947606;28;20115;-73
2022/11/10 08:22:39;;;;;;;49.20;21.20;;;;;;;10.66;100.00;101691.38;4944470;29;20130;-72
2022/11/10 08:25:05;;;;;;;51.30;21.13;;;;;;;10.71;100.00;101691.81;4946936;28;20122;-72
2022/11/10 08:27:30;;;;;;;51.00;20.42;;;;;;;10.78;100.00;101698.38;4944803;29;20059;-73
2022/11/10 08:29:55;;;;;;;53.22;20.40;;;;;;;10.56;100.00;101694.03;4946403;29;20063;-73
2022/11/10 08:32:21;;;;;;;51.47;19.80;;;;;;;10.79;100.00;101697.38;4946856;28;20560;-73
2022/11/10 08:34:46;;;;;;;46.22;19.85;;;;;;;10.75;100.00;101698.66;4959766;28;20147;-72
2022/11/10 08:37:11;;;;;;;49.75;18.63;;;;;;;10.86;100.00;101709.38;4945113;29;20027;-72
2022/11/10 08:39:37;;;;;;;43.80;18.95;;;;;;;10.94;100.00;101714.94;4946479;28;20062;-72
2022/11/10 08:42:02;;;;;;;50.05;21.52;;;;;;;10.95;100.00;101719.34;4944704;29;20039;-72
2022/11/10 08:44:27;;;;;;;57.50;20.20;;;;;;;10.93;100.00;101713.22;4961616;28;20027;-73
2022/11/10 08:46:53;;;;;;;46.17;20.73;;;;;;;10.94;100.00;101704.09;4945228;29;20110;-72
2022/11/10 08:49:18;;;;;;;53.53;23.00;;;;;;;10.92;100.00;101706.09;4944625;29;20117;-71
2022/11/10 08:51:43;;;;;;;69.45;20.70;;;;;;;11.12;100.00;101724.09;4945140;29;20035;-72
2022/11/10 08:54:09;;;;;;;64.30;22.25;;;;;;;11.25;100.00;101717.56;4945151;28;20031;-73
2022/11/10 08:56:34;;;;;;;57.53;20.55;;;;;;;11.19;100.00;101723.53;4946596;28;20031;-72
2022/11/10 08:59:00;;;;;;;53.55;20.92;;;;;;;11.09;100.00;101740.66;4945060;29;20024;-73
2022/11/10 09:01:25;;;;;;;67.15;21.55;;;;;;;11.26;100.00;101740.94;4945932;28;20122;-72
2022/11/10 09:03:50;;;;;;;50.45;20.77;;;;;;;11.12;100.00;101728.66;4944092;28;20027;-72
2022/11/10 09:06:16;;;;;;;63.22;23.05;;;;;;;11.07;100.00;101726.38;4944276;29;20121;-73
2022/11/10 09:08:41;;;;;;;47.42;20.73;;;;;;;11.26;100.00;101727.41;4946479;29;20039;-72
2022/11/10 09:11:06;;;;;;;64.15;23.80;;;;;;;11.11;100.00;101727.81;4960037;28;20042;-73
2022/11/10 09:13:32;;;;;;;61.38;23.85;;;;;;;11.05;100.00;101755.47;4943846;28;20411;-72
2022/11/10 09:16:01;;;;;;;66.57;22.45;;;;;;;11.11;100.00;101744.06;4944849;29;20094;-73
2022/11/10 09:18:28;;;;;;;56.25;22.17;;;;;;;11.19;100.00;101745.22;4944163;29;20031;-73
2022/11/10 09:20:53;;;;;;;58.40;20.35;;;;;;;11.37;100.00;101746.25;4960877;28;20083;-72
2022/11/10 09:23:20;;;;;;;56.30;21.08;;;;;;;11.60;100.00;101761.22;4960572;28;20638;-73
2022/11/10 09:25:51;;;;;;;48.10;21.15;;;;;;;11.44;100.00;101774.50;4944459;28;20038;-73
2022/11/10 09:28:19;;;;;;;57.10;20.40;;;;;;;11.55;100.00;101758.09;4945954;28;20118;-72
2022/11/10 09:30:46;;;;;;;49.60;22.13;;;;;;;11.41;100.00;101766.66;4961289;28;20027;-73
2022/11/10 09:33:12;;;;;;;49.05;20.25;;;;;;;11.43;100.00;101764.66;4944161;29;20051;-73
2022/11/10 09:35:37;;;;;;;65.15;22.30;;;;;;;11.72;100.00;101761.06;4946114;28;20066;-73
2022/11/10 09:38:03;;;;;;;58.55;20.40;;;;;;;11.94;100.00;101768.97;4944137;29;20027;-73
2022/11/10 09:40:43;;;;;;;54.35;19.65;;;;;;;11.93;100.00;101767.22;4944002;29;20373;-72
2022/11/10 09:43:22;;;;;;;76.28;22.52;;;;;;;11.89;100.00;101771.25;4960302;28;20098;-73
2022/11/10 09:45:52;;;;;;;47.83;18.85;;;;;;;12.00;100.00;101779.22;4946367;28;20051;-73
2022/11/10 09:48:24;;;;;;;46.35;19.65;;;;;;;11.92;100.00;101776.38;4948668;29;20024;-72
2022/11/10 09:50:54;;;;;;;40.05;17.70;;;;;;;11.97;100.00;101784.94;4965194;28;20027;-72
2022/11/10 09:53:36;;;;;;;54.13;18.83;;;;;;;11.93;100.00;101788.94;4964763;28;20038;-72
2022/11/10 09:56:04;;;;;;;41.70;16.90;;;;;;;11.88;100.00;101788.53;4948725;29;20058;-72
2022/11/10 09:58:41;;;;;;;47.17;18.38;;;;;;;11.77;100.00;101794.06;4948749;28;20089;-72
2022/11/10 10:01:20;;;;;;;55.35;17.33;;;;;;;11.93;100.00;101788.94;4949598;28;20027;-73
2022/11/10 10:03:51;;;;;;;41.17;18.02;;;;;;;11.99;100.00;101803.78;4963922;28;20030;-73
2022/11/10 10:06:18;;;;;;;49.25;18.45;;;;;;;11.85;100.00;101796.94;4963846;28;20033;-71
2022/11/10 10:09:08;;;;;;;58.90;18.40;;;;;;;11.99;100.00;101799.22;4965105;28;20073;-73
2022/11/10 10:11:36;;;;;;;50.13;17.17;;;;;;;12.08;100.00;101792.94;4948423;29;20019;-72
2022/11/10 10:14:30;;;;;;;44.55;15.00;;;;;;;12.15;99.43;101799.47;4948668;28;20035;-72
2022/11/10 10:17:22;;;;;;;43.53;17.00;;;;;;;12.04;99.87;101796.91;4918568;28;20122;-73
2022/11/10 10:19:51;;;;;;;42.47;16.90;;;;;;;12.26;98.81;101794.88;4939802;29;20031;-73
2022/11/10 10:22:41;;;;;;;51.92;15.95;;;;;;;12.30;98.99;101807.16;4947401;29;20046;-74
2022/11/10 10:25:21;;;;;;;43.75;15.80;;;;;;;12.19;99.18;101817.22;4950102;28;20054;-73
2022/11/10 10:27:56;;;;;;;43.05;15.25;;;;;;;12.15;98.92;101815.78;4964668;28;20404;-72
2022/11/10 10:30:22;;;;;;;44.17;14.52;;;;;;;12.38;98.46;101820.84;4948966;29;20031;-73
2022/11/10 10:32:54;;;;;;;41.90;14.55;;;;;;;12.38;98.64;101820.84;4946644;29;20147;-73
2022/11/10 10:35:19;;;;;;;42.38;13.90;;;;;;;12.41;98.16;101815.16;4963285;28;20019;-72
2022/11/10 10:37:48;;;;;;;37.17;12.52;;;;;;;12.64;97.65;101827.34;4964144;28;20070;-73
2022/11/10 10:40:16;;;;;;;49.90;14.63;;;;;;;12.61;97.54;101816.78;4962974;28;20053;-73
2022/11/10 10:42:42;;;;;;;56.85;15.18;;;;;;;12.45;97.82;101832.84;4963126;28;20026;-73
2022/11/10 10:45:18;;;;;;;52.28;13.68;;;;;;;12.52;97.81;101843.97;4948493;28;20023;-72
2022/11/10 10:47:45;;;;;;;46.20;14.40;;;;;;;12.57;97.18;101853.41;4964587;28;20034;-73
2022/11/10 10:50:19;;;;;;;49.42;15.43;;;;;;;12.33;97.95;101858.47;4947302;29;20027;-73
2022/11/10 10:53:04;;;;;;;48.95;15.07;;;;;;;12.49;97.26;101842.44;4947663;29;20042;-73
2022/11/10 10:55:30;;;;;;;51.33;14.90;;;;;;;12.52;97.55;101839.44;4963395;28;20462;-73
2022/11/10 10:57:59;;;;;;;47.08;13.45;;;;;;;12.69;96.88;101826.91;4946754;28;20031;-72
2022/11/10 11:00:24;;;;;;;51.78;13.10;;;;;;;12.67;96.81;101832.50;4948214;29;20038;-72
2022/11/10 11:03:20;;;;;;;35.92;11.10;;;;;;;13.10;94.85;101838.31;4964074;28;20027;-73
2022/11/10 11:06:06;;;;;;;41.65;13.43;;;;;;;12.88;95.47;101845.88;4947639;28;20027;-73
2022/11/10 11:08:32;;;;;;;44.60;13.43;;;;;;;12.91;95.69;101850.13;4963210;28;20592;-72
2022/11/10 11:11:07;;;;;;;39.38;13.25;;;;;;;12.86;95.75;101853.31;4949493;28;20027;-72
2022/11/10 11:13:33;;;;;;;41.17;11.90;;;;;;;12.83;96.11;101841.88;4948346;28;20309;-72
2022/11/10 11:16:01;;;;;;;44.83;12.50;;;;;;;12.94;95.38;101844.41;4948441;28;20023;-72
2022/11/10 11:18:28;;;;;;;40.10;12.85;;;;;;;13.01;94.86;101845.53;4948578;28;20105;-72